X  Close Metar Aviation Weather Data     EBBR Brussels Airport
Temperature
30°C Temperature
18°C Dewpoint
49% Humidity



Wind
2 KM/H
1 MPH
0 M/S
1 KTS



Calm
North
Current Conditions

Clear Clear
Pressure 1013.92 (hPa) - 29.94 (inHg)
Visibility 6.2 (mile) - 10 (km)
Airport
Airport-code EBBR

Location: Brussels Airport
Distance: 14 (km)

Metar:
EBBR 121150Z VRB01KT CAVOK 30/18 Q1014 NOSIG

Time: 08-12-2020 13:50 CEST